createdAt,value
2018-02-14T00:01:44.069Z,2.50
2018-02-14T00:04:11.562Z,2.60
2018-02-14T00:06:39.040Z,2.70
2018-02-14T00:09:06.515Z,2.70
2018-02-14T00:11:34.802Z,2.80
2018-02-14T00:14:03.860Z,2.70
2018-02-14T00:16:31.370Z,2.70
2018-02-14T00:18:59.293Z,2.80
2018-02-14T00:21:26.763Z,2.60
2018-02-14T00:23:54.297Z,2.50
2018-02-14T00:26:21.777Z,2.60
2018-02-14T00:28:49.300Z,2.60
2018-02-14T00:31:16.752Z,2.60
2018-02-14T00:33:44.730Z,2.70
2018-02-14T00:36:14.949Z,2.70
2018-02-14T00:38:42.432Z,2.60
2018-02-14T00:41:09.905Z,2.60
2018-02-14T00:43:38.152Z,2.60
2018-02-14T00:46:05.656Z,2.60
2018-02-14T00:48:33.170Z,2.60
2018-02-14T00:51:00.683Z,2.50
2018-02-14T00:53:28.158Z,2.40
2018-02-14T00:55:55.652Z,2.30
2018-02-14T00:58:23.218Z,2.20
2018-02-14T01:00:50.689Z,2.20
2018-02-14T01:03:18.172Z,2.10
2018-02-14T01:05:45.675Z,2.00
2018-02-14T01:08:13.241Z,2.10
2018-02-14T01:10:40.712Z,2.00
2018-02-14T01:13:08.179Z,2.10
2018-02-14T01:15:35.705Z,2.20
2018-02-14T01:18:03.296Z,2.10
2018-02-14T01:20:34.942Z,2.30
2018-02-14T01:23:02.414Z,2.20
2018-02-14T01:25:30.685Z,2.40
2018-02-14T01:27:58.940Z,2.50
2018-02-14T01:30:26.420Z,2.50
2018-02-14T01:32:54.697Z,2.50
2018-02-14T01:35:22.995Z,2.50
2018-02-14T01:37:50.485Z,2.50
2018-02-14T01:40:17.953Z,2.50
2018-02-14T01:42:45.464Z,2.60
2018-02-14T01:45:13.057Z,2.50
2018-02-14T01:47:40.574Z,2.50
2018-02-14T01:50:08.820Z,2.50
2018-02-14T01:52:36.288Z,2.50
2018-02-14T01:55:04.530Z,2.50
2018-02-14T01:57:32.009Z,2.50
2018-02-14T01:59:59.486Z,2.40
2018-02-14T02:02:27.748Z,2.40
2018-02-14T02:04:55.208Z,2.40
2018-02-14T02:07:23.481Z,2.40
2018-02-14T02:12:24.493Z,2.30
2018-02-14T02:14:51.994Z,2.20
2018-02-14T02:17:19.497Z,2.30
2018-02-14T02:19:46.992Z,2.20
2018-02-14T02:22:14.495Z,2.20
2018-02-14T02:24:42.010Z,2.20
2018-02-14T02:27:09.477Z,2.10
2018-02-14T02:29:36.976Z,2.10
2018-02-14T02:32:06.257Z,2.20
2018-02-14T02:34:34.506Z,2.20
2018-02-14T02:37:01.980Z,2.10
2018-02-14T02:39:43.001Z,2.10
2018-02-14T02:42:11.939Z,2.10
2018-02-14T02:44:40.669Z,2.10
2018-02-14T02:47:08.187Z,2.10
2018-02-14T02:49:35.692Z,2.00
2018-02-14T02:52:03.808Z,2.00
2018-02-14T02:54:31.319Z,1.90
2018-02-14T02:56:58.819Z,1.90
2018-02-14T02:59:26.298Z,2.00
2018-02-14T03:01:53.777Z,1.90
2018-02-14T03:04:21.256Z,1.90
2018-02-14T03:06:48.770Z,2.00
2018-02-14T03:09:17.141Z,2.00
2018-02-14T03:11:44.628Z,1.90
2018-02-14T03:14:12.109Z,1.90
2018-02-14T03:16:39.611Z,1.90
2018-02-14T03:19:07.139Z,1.90
2018-02-14T03:21:34.634Z,1.80
2018-02-14T03:24:02.121Z,1.90
2018-02-14T03:26:30.581Z,1.90
2018-02-14T03:28:59.398Z,1.90
2018-02-14T03:31:27.764Z,1.90
2018-02-14T03:33:55.256Z,1.80
2018-02-14T03:36:22.797Z,1.90
2018-02-14T03:38:50.267Z,1.80
2018-02-14T03:41:17.753Z,1.90
2018-02-14T03:43:45.272Z,1.90
2018-02-14T03:46:12.800Z,1.80
2018-02-14T03:48:40.333Z,1.80
2018-02-14T03:51:07.788Z,1.90
2018-02-14T03:53:35.298Z,1.90
2018-02-14T03:56:02.777Z,2.00
2018-02-14T03:58:30.304Z,2.00
2018-02-14T04:00:57.806Z,2.00
2018-02-14T04:03:25.326Z,1.90
2018-02-14T04:05:52.789Z,1.90
2018-02-14T04:08:20.298Z,2.00
2018-02-14T04:10:51.274Z,2.10
2018-02-14T04:13:19.540Z,2.00
2018-02-14T04:15:47.030Z,2.00
2018-02-14T04:18:14.533Z,2.00
2018-02-14T04:20:42.862Z,2.00
2018-02-14T04:23:10.376Z,2.00
2018-02-14T04:25:38.675Z,1.90
2018-02-14T04:28:23.205Z,1.90
2018-02-14T04:30:51.481Z,2.00
2018-02-14T04:33:19.781Z,1.90
2018-02-14T04:35:47.263Z,1.90
2018-02-14T04:38:15.230Z,1.90
2018-02-14T04:40:43.551Z,1.80
2018-02-14T04:43:11.035Z,1.80
2018-02-14T04:45:38.588Z,1.80
2018-02-14T04:48:09.737Z,1.70
2018-02-14T04:50:37.795Z,1.70
2018-02-14T04:53:05.411Z,1.70
2018-02-14T04:55:34.213Z,1.60
2018-02-14T04:58:22.585Z,1.60
2018-02-14T05:01:00.227Z,1.60
2018-02-14T05:03:33.024Z,1.70
2018-02-14T05:06:00.565Z,1.50
2018-02-14T05:08:28.061Z,1.50
2018-02-14T05:10:55.626Z,1.50
2018-02-14T05:13:23.109Z,1.40
2018-02-14T05:15:51.370Z,1.40
2018-02-14T05:18:19.677Z,1.40
2018-02-14T05:20:47.170Z,1.40
2018-02-14T05:23:14.659Z,1.30
2018-02-14T05:25:42.137Z,1.40
2018-02-14T05:28:09.628Z,1.40
2018-02-14T05:30:37.130Z,1.40
2018-02-14T05:33:04.612Z,1.40
2018-02-14T05:35:32.116Z,1.40
2018-02-14T05:37:59.600Z,1.40
2018-02-14T05:40:27.735Z,1.30
2018-02-14T05:42:55.236Z,1.30
2018-02-14T05:45:22.701Z,1.30
2018-02-14T05:47:50.229Z,1.30
2018-02-14T05:50:17.714Z,1.30
2018-02-14T05:52:45.218Z,1.20
2018-02-14T05:55:12.691Z,1.20
2018-02-14T05:57:40.251Z,1.10
2018-02-14T06:00:07.877Z,1.00
2018-02-14T06:02:38.252Z,1.00
2018-02-14T06:05:06.497Z,1.00
2018-02-14T06:07:40.196Z,1.10
2018-02-14T06:10:11.096Z,1.20
2018-02-14T06:12:39.023Z,1.20
2018-02-14T06:15:06.513Z,1.20
2018-02-14T06:17:35.830Z,1.10
2018-02-14T06:20:03.860Z,1.10
2018-02-14T06:22:31.354Z,1.10
2018-02-14T06:25:03.552Z,1.00
2018-02-14T06:27:35.067Z,1.10
2018-02-14T06:30:02.609Z,0.80
2018-02-14T06:32:30.106Z,0.90
2018-02-14T06:34:57.929Z,1.00
2018-02-14T06:37:25.579Z,1.00
2018-02-14T06:39:54.119Z,1.10
2018-02-14T06:42:21.604Z,1.10
2018-02-14T06:44:49.103Z,1.10
2018-02-14T06:47:17.346Z,1.00
2018-02-14T06:49:44.849Z,1.00
2018-02-14T06:52:12.331Z,1.10
2018-02-14T06:54:40.588Z,1.10
2018-02-14T06:57:08.068Z,1.10
2018-02-14T06:59:35.577Z,1.30
2018-02-14T07:02:06.660Z,1.30
2018-02-14T07:04:35.011Z,1.40
2018-02-14T07:07:02.469Z,1.40
2018-02-14T07:09:30.645Z,1.40
2018-02-14T07:11:58.258Z,1.40
2018-02-14T07:14:25.887Z,1.60
2018-02-14T07:16:53.380Z,1.60
2018-02-14T07:19:20.884Z,1.70
2018-02-14T07:21:55.219Z,1.80
2018-02-14T07:27:15.075Z,1.70
2018-02-14T07:29:47.528Z,1.70
2018-02-14T07:35:11.707Z,1.30
2018-02-14T07:37:39.318Z,1.40
2018-02-14T07:40:07.462Z,1.20
2018-02-14T07:42:51.749Z,1.20
2018-02-14T07:48:50.329Z,1.40
2018-02-14T07:51:17.950Z,1.60
2018-02-14T07:53:49.317Z,1.70
2018-02-14T08:02:12.753Z,1.80
2018-02-14T09:47:30.017Z,2.00
2018-02-14T09:50:01.632Z,9.30
2018-02-14T09:52:29.137Z,9.50
2018-02-14T09:54:56.758Z,9.50
2018-02-14T09:57:24.267Z,9.40
2018-02-14T09:59:53.025Z,9.40
2018-02-14T10:02:20.632Z,9.50
2018-02-14T10:04:48.890Z,10.10
2018-02-14T10:07:16.411Z,10.00
2018-02-14T10:09:44.694Z,10.20
2018-02-14T10:12:12.194Z,10.00
2018-02-14T10:14:40.477Z,10.10
2018-02-14T10:17:08.010Z,10.10
2018-02-14T10:19:35.504Z,10.30
2018-02-14T10:22:03.012Z,9.80
2018-02-14T10:24:31.005Z,9.70
2018-02-14T10:26:59.539Z,9.60
2018-02-14T10:29:30.838Z,9.30
2018-02-14T10:31:58.415Z,9.40
2018-02-14T10:34:27.048Z,9.50
2018-02-14T10:37:00.499Z,9.50
2018-02-14T10:39:28.055Z,9.10
2018-02-14T10:41:55.650Z,8.90
2018-02-14T10:44:28.140Z,8.70
2018-02-14T10:46:57.548Z,8.70
2018-02-14T10:49:25.141Z,8.60
2018-02-14T10:51:52.684Z,8.40
2018-02-14T10:54:20.912Z,8.30
2018-02-14T10:56:48.742Z,8.30
2018-02-14T10:59:16.882Z,8.30
2018-02-14T11:01:51.165Z,8.20
2018-02-14T11:04:28.587Z,8.00
2018-02-14T11:07:09.576Z,8.00
2018-02-14T11:09:37.162Z,8.00
2018-02-14T11:12:04.753Z,7.90
2018-02-14T11:14:32.357Z,7.90
2018-02-14T11:17:01.449Z,7.80
2018-02-14T11:19:29.759Z,7.40
2018-02-14T11:21:57.370Z,7.50
2018-02-14T11:24:26.085Z,7.60
2018-02-14T11:26:59.977Z,7.70
2018-02-14T11:29:28.626Z,7.70
2018-02-14T11:31:56.154Z,7.50
2018-02-14T11:34:24.345Z,7.30
2018-02-14T11:36:58.051Z,7.40
2018-02-14T11:39:25.567Z,7.50
2018-02-14T11:41:53.694Z,7.60
2018-02-14T11:44:43.128Z,7.50
2018-02-14T11:47:14.783Z,7.60
2018-02-14T11:50:00.969Z,7.70
2018-02-14T11:52:29.216Z,7.70
2018-02-14T11:54:56.878Z,7.90
2018-02-14T11:57:24.532Z,7.90
2018-02-14T11:59:52.095Z,8.10
2018-02-14T12:02:19.646Z,8.30
2018-02-14T12:04:47.183Z,8.50
2018-02-14T12:07:14.711Z,8.60
2018-02-14T12:09:46.871Z,8.60
2018-02-14T12:12:14.428Z,8.60
2018-02-14T12:14:43.452Z,8.90
2018-02-14T12:17:15.297Z,8.80
2018-02-14T12:19:43.638Z,9.20
2018-02-14T12:22:11.177Z,9.20
2018-02-14T12:24:38.700Z,9.40
2018-02-14T12:27:07.861Z,9.50
2018-02-14T12:29:39.653Z,9.70
2018-02-14T12:32:07.253Z,9.80
2018-02-14T12:34:39.225Z,9.80
2018-02-14T12:37:10.801Z,9.80
2018-02-14T12:39:38.363Z,9.70
2018-02-14T12:42:06.184Z,9.60
2018-02-14T12:44:34.693Z,9.00
2018-02-14T12:47:06.227Z,8.90
2018-02-14T12:49:36.702Z,8.90
2018-02-14T12:52:05.097Z,8.80
2018-02-14T12:54:32.761Z,8.70
2018-02-14T12:57:00.440Z,8.80
2018-02-14T12:59:32.208Z,8.60
2018-02-14T13:02:00.529Z,8.60
2018-02-14T13:04:28.058Z,8.50
2018-02-14T13:06:56.781Z,8.60
2018-02-14T13:09:25.068Z,8.90
2018-02-14T13:11:53.888Z,8.90
2018-02-14T13:14:21.402Z,8.80
2018-02-14T13:16:53.373Z,9.00
2018-02-14T13:19:20.906Z,9.00
2018-02-14T13:21:48.445Z,9.10
2018-02-14T13:24:15.994Z,9.30
2018-02-14T13:26:43.540Z,9.20
2018-02-14T13:29:11.033Z,9.40
2018-02-14T13:31:38.507Z,9.50
2018-02-14T13:34:06.784Z,9.70
2018-02-14T13:36:34.336Z,9.70
2018-02-14T13:39:01.846Z,9.80
2018-02-14T13:41:29.573Z,10.00
2018-02-14T13:43:57.845Z,9.90
2018-02-14T13:46:26.365Z,10.10
2018-02-14T13:48:53.853Z,10.00
2018-02-14T13:51:25.416Z,10.10
2018-02-14T13:53:52.900Z,10.00
2018-02-14T13:56:20.432Z,9.90
2018-02-14T13:58:48.162Z,9.90
2018-02-14T14:01:15.780Z,10.10
2018-02-14T14:03:44.843Z,10.20
2018-02-14T14:06:12.525Z,10.20
2018-02-14T14:08:40.850Z,10.40
2018-02-14T14:11:09.813Z,10.30
2018-02-14T14:13:37.456Z,10.10
2018-02-14T14:16:05.067Z,10.00
2018-02-14T14:18:36.589Z,9.80
2018-02-14T14:21:04.120Z,9.80
2018-02-14T14:23:31.633Z,9.70
2018-02-14T14:25:59.842Z,9.50
2018-02-14T14:28:28.844Z,9.30
2018-02-14T14:30:56.400Z,9.30
2018-02-14T14:33:25.763Z,9.50
2018-02-14T14:35:57.758Z,9.40
2018-02-14T14:38:26.783Z,9.40
2018-02-14T14:40:55.142Z,9.40
2018-02-14T14:43:23.474Z,9.30
2018-02-14T14:45:55.291Z,9.10
2018-02-14T14:48:22.776Z,9.10
2018-02-14T14:50:50.447Z,9.00
2018-02-14T14:53:17.954Z,9.00
2018-02-14T14:55:46.742Z,8.90
2018-02-14T14:58:14.706Z,8.80
2018-02-14T15:00:42.238Z,8.70
2018-02-14T15:03:09.760Z,8.60
2018-02-14T15:05:38.762Z,8.20
2018-02-14T15:08:06.415Z,8.10
2018-02-14T15:10:47.549Z,8.10
2018-02-14T15:13:19.219Z,7.90
2018-02-14T15:15:48.141Z,7.80
2018-02-14T15:18:15.680Z,7.90
2018-02-14T15:20:44.857Z,7.90
2018-02-14T15:23:27.671Z,7.90
2018-02-14T15:26:03.144Z,7.80
2018-02-14T15:28:31.396Z,7.80
2018-02-14T15:30:59.839Z,7.80
2018-02-14T15:33:27.363Z,7.90
2018-02-14T15:35:56.377Z,7.50
2018-02-14T15:38:25.717Z,7.50
2018-02-14T15:41:10.339Z,7.20
2018-02-14T15:43:38.658Z,7.20
2018-02-14T15:46:12.490Z,7.20
2018-02-14T15:48:57.769Z,7.10
2018-02-14T15:51:26.340Z,7.00
2018-02-14T15:54:01.028Z,7.00
2018-02-14T15:56:28.576Z,7.00
2018-02-14T15:58:57.890Z,7.00
2018-02-14T16:01:25.556Z,6.70
2018-02-14T16:03:53.320Z,6.60
2018-02-14T16:06:20.816Z,6.60
2018-02-14T16:08:49.631Z,6.60
2018-02-14T16:11:17.140Z,6.60
2018-02-14T16:13:53.698Z,6.60
2018-02-14T16:16:23.965Z,6.50
2018-02-14T16:18:55.911Z,6.40
2018-02-14T16:21:23.475Z,6.30
2018-02-14T16:23:51.354Z,6.30
2018-02-14T16:26:18.906Z,6.40
2018-02-14T16:28:48.015Z,6.30
2018-02-14T16:31:17.102Z,6.40
2018-02-14T16:33:44.628Z,6.30
2018-02-14T16:36:12.277Z,6.30
2018-02-14T16:38:39.835Z,6.30
2018-02-14T16:41:08.222Z,6.10
2018-02-14T16:43:38.526Z,6.20
2018-02-14T16:46:06.980Z,6.30
2018-02-14T16:48:35.388Z,6.20
2018-02-14T16:51:02.949Z,6.30
2018-02-14T16:53:30.785Z,6.30
2018-02-14T16:55:59.880Z,6.30
2018-02-14T16:58:33.556Z,6.30
2018-02-14T17:01:04.350Z,6.20
2018-02-14T17:03:32.645Z,6.10
2018-02-14T17:06:01.824Z,6.10
2018-02-14T17:08:29.489Z,6.00
2018-02-14T17:10:58.265Z,6.00
2018-02-14T17:13:25.779Z,6.00
2018-02-14T17:15:53.325Z,6.10
2018-02-14T17:18:21.658Z,5.90
2018-02-14T17:20:50.820Z,5.90
2018-02-14T17:23:18.489Z,5.90
2018-02-14T17:25:46.757Z,5.80
2018-02-14T17:28:17.039Z,5.80
2018-02-14T17:30:44.769Z,5.90
2018-02-14T17:33:13.188Z,5.80
2018-02-14T17:35:40.717Z,5.70
2018-02-14T17:38:08.515Z,5.70
2018-02-14T17:40:39.272Z,5.60
2018-02-14T17:43:07.682Z,5.60
2018-02-14T17:45:35.243Z,5.60
2018-02-14T17:48:02.767Z,5.70
2018-02-14T17:50:31.004Z,5.70
2018-02-14T17:52:58.791Z,5.70
2018-02-14T17:55:30.388Z,5.60
2018-02-14T17:57:57.929Z,5.70
2018-02-14T18:00:25.571Z,5.70
2018-02-14T18:02:53.058Z,5.80
2018-02-14T18:05:20.625Z,5.70
2018-02-14T18:07:48.232Z,5.70
2018-02-14T18:10:16.455Z,5.70
2018-02-14T18:12:43.994Z,5.60
2018-02-14T18:15:12.899Z,5.60
2018-02-14T18:17:40.387Z,5.60
2018-02-14T18:20:08.065Z,5.50
2018-02-14T18:22:35.689Z,5.60
2018-02-14T18:25:03.356Z,5.50
2018-02-14T18:30:35.768Z,5.60
2018-02-14T18:33:03.323Z,5.60
2018-02-14T18:35:31.441Z,5.60
2018-02-14T18:37:58.990Z,5.50
2018-02-14T18:40:27.178Z,5.50
2018-02-14T18:42:59.757Z,5.50
2018-02-14T18:45:28.297Z,5.50
2018-02-14T18:47:56.380Z,5.50
2018-02-14T18:50:25.944Z,5.50
2018-02-14T18:52:55.436Z,5.50
2018-02-14T18:55:23.063Z,5.60
2018-02-14T18:57:51.973Z,5.40
2018-02-14T19:00:23.406Z,5.20
2018-02-14T19:02:51.050Z,5.20
2018-02-14T19:05:18.671Z,5.10
2018-02-14T19:07:50.495Z,5.10
2018-02-14T19:10:18.386Z,5.10
2018-02-14T19:12:49.918Z,5.10
2018-02-14T19:15:18.559Z,5.20
2018-02-14T19:17:46.254Z,5.30
2018-02-14T19:20:13.896Z,5.30
2018-02-14T19:22:41.639Z,5.20
2018-02-14T19:25:09.387Z,5.20
2018-02-14T19:27:39.963Z,5.20
2018-02-14T19:30:07.538Z,5.30
2018-02-14T19:32:36.759Z,5.40
2018-02-14T19:35:07.797Z,5.40
2018-02-14T19:37:43.827Z,5.20
2018-02-14T19:40:11.420Z,5.20
2018-02-14T19:42:41.415Z,5.20
2018-02-14T19:45:13.136Z,5.20
2018-02-14T19:47:40.813Z,5.20
2018-02-14T19:50:08.406Z,5.30
2018-02-14T19:52:36.121Z,5.30
2018-02-14T19:55:04.382Z,5.20
2018-02-14T19:57:31.980Z,5.30
2018-02-14T19:59:59.607Z,5.30
2018-02-14T20:02:31.365Z,5.20
2018-02-14T20:04:58.967Z,5.30
2018-02-14T20:07:28.148Z,5.30
2018-02-14T20:09:56.692Z,5.30
2018-02-14T20:12:24.247Z,5.20
2018-02-14T20:14:52.606Z,5.20
2018-02-14T20:17:30.435Z,5.20
2018-02-14T20:19:59.569Z,5.10
2018-02-14T20:22:27.244Z,5.00
2018-02-14T20:24:55.717Z,5.00
2018-02-14T20:27:24.122Z,5.10
2018-02-14T20:29:51.968Z,5.00
2018-02-14T20:32:20.607Z,5.00
2018-02-14T20:35:06.976Z,5.00
2018-02-14T20:37:35.676Z,5.00
2018-02-14T20:40:03.325Z,5.00
2018-02-14T20:42:31.683Z,4.90
2018-02-14T20:44:59.975Z,5.00
2018-02-14T20:47:30.921Z,4.90
2018-02-14T20:49:58.580Z,4.80
2018-02-14T20:52:27.151Z,4.90
2018-02-14T20:54:55.274Z,4.90
2018-02-14T20:57:27.020Z,5.00
2018-02-14T20:59:54.522Z,5.00
2018-02-14T21:02:22.117Z,5.00
2018-02-14T21:05:10.696Z,5.00
2018-02-14T21:07:39.585Z,5.00
2018-02-14T21:18:47.858Z,4.90
2018-02-14T21:24:38.572Z,5.00
2018-02-14T21:27:06.201Z,4.90
2018-02-14T21:29:33.873Z,5.00
2018-02-14T21:32:02.987Z,5.20
2018-02-14T21:34:30.925Z,5.20
2018-02-14T21:36:58.593Z,5.10
2018-02-14T21:39:26.478Z,5.00
2018-02-14T21:42:01.058Z,5.00
2018-02-14T21:44:29.908Z,5.00
2018-02-14T21:47:20.714Z,5.00
2018-02-14T21:49:48.989Z,5.10
2018-02-14T21:52:16.566Z,5.10
2018-02-14T21:54:44.139Z,5.20
2018-02-14T21:57:20.130Z,5.20
2018-02-14T21:59:47.731Z,5.20
2018-02-14T22:02:15.845Z,5.20
2018-02-14T22:04:44.810Z,5.30
2018-02-14T22:07:15.206Z,5.40
2018-02-14T22:09:44.149Z,5.30
2018-02-14T22:12:11.737Z,5.40
2018-02-14T22:14:39.324Z,5.40
2018-02-14T22:17:10.375Z,5.30
2018-02-14T22:19:37.921Z,5.40
2018-02-14T22:22:05.559Z,5.30
2018-02-14T22:24:33.076Z,5.20
2018-02-14T22:27:06.534Z,5.20
2018-02-14T22:29:34.162Z,5.20
2018-02-14T22:38:01.574Z,5.00
2018-02-14T22:40:35.378Z,5.00
2018-02-14T22:43:11.314Z,5.00
2018-02-14T22:48:42.738Z,5.00
2018-02-14T22:51:10.611Z,5.00
2018-02-14T22:53:38.295Z,4.90
2018-02-14T22:56:07.750Z,5.00
2018-02-14T22:58:35.311Z,5.00
2018-02-14T23:01:02.834Z,5.00
2018-02-14T23:03:30.392Z,5.00
2018-02-14T23:05:59.922Z,5.20
2018-02-14T23:08:27.540Z,5.20
2018-02-14T23:10:55.069Z,5.30
2018-02-14T23:13:22.618Z,5.30
2018-02-14T23:15:50.592Z,5.30
2018-02-14T23:18:18.125Z,5.40
2018-02-14T23:20:45.664Z,5.40
2018-02-14T23:23:18.187Z,5.40
2018-02-14T23:25:45.996Z,5.40
2018-02-14T23:28:18.977Z,5.30
2018-02-14T23:30:58.778Z,5.20
2018-02-14T23:33:26.311Z,5.20
2018-02-14T23:35:53.897Z,5.30
2018-02-14T23:38:25.506Z,5.40
2018-02-14T23:41:01.208Z,5.40
2018-02-14T23:46:27.856Z,5.40
2018-02-14T23:48:55.399Z,5.30
2018-02-14T23:51:22.900Z,5.20
2018-02-14T23:53:59.362Z,5.20
2018-02-14T23:56:27.581Z,5.20
2018-02-14T23:58:55.121Z,5.20
